createdAt,value
2018-03-24T05:12:26.684Z,99.80
2018-03-24T05:14:54.630Z,99.80
2018-03-24T05:17:22.391Z,99.80
2018-03-24T05:19:49.929Z,99.80
2018-03-24T05:22:17.531Z,99.80
2018-03-24T05:24:45.551Z,99.80
2018-03-24T05:27:13.158Z,99.80
2018-03-24T05:29:40.702Z,99.80
2018-03-24T05:32:08.310Z,99.80
2018-03-24T05:34:35.901Z,99.80
2018-03-24T05:37:03.493Z,99.80
2018-03-24T05:39:31.061Z,99.80
2018-03-24T05:41:59.029Z,99.80
2018-03-24T05:44:26.644Z,99.80
2018-03-24T05:46:54.218Z,99.80
2018-03-24T05:49:21.842Z,99.80
2018-03-24T05:51:49.474Z,99.80
2018-03-24T05:54:17.126Z,99.80
2018-03-24T05:56:44.772Z,99.80
2018-03-24T05:59:16.746Z,99.80
2018-03-24T06:01:44.317Z,99.80
2018-03-24T06:04:11.862Z,99.80
2018-03-24T06:06:39.453Z,99.80
2018-03-24T06:09:07.393Z,99.80
2018-03-24T06:11:34.981Z,99.80
2018-03-24T06:14:02.922Z,99.80
2018-03-24T06:16:31.541Z,99.80
2018-03-24T06:18:59.115Z,99.80
2018-03-24T06:21:26.665Z,99.80
2018-03-24T06:23:54.413Z,99.80
2018-03-24T06:26:22.894Z,99.80
2018-03-24T06:28:50.468Z,99.80
2018-03-24T06:31:23.487Z,99.80
2018-03-24T06:33:51.022Z,99.80
2018-03-24T06:36:20.941Z,99.80
2018-03-24T06:38:48.466Z,99.80
2018-03-24T06:41:16.002Z,99.80
2018-03-24T06:43:44.019Z,99.80
2018-03-24T06:46:11.777Z,99.80
2018-03-24T06:48:39.314Z,99.80
2018-03-24T06:51:06.910Z,99.80
2018-03-24T06:53:34.458Z,99.80
2018-03-24T06:56:02.032Z,99.80
2018-03-24T06:58:29.689Z,99.80
2018-03-24T07:00:57.233Z,99.80
2018-03-24T07:03:24.781Z,99.80
2018-03-24T07:05:52.718Z,99.80
2018-03-24T07:08:20.266Z,99.80
2018-03-24T07:10:47.842Z,99.80
2018-03-24T07:13:15.407Z,99.80
2018-03-24T07:15:42.971Z,99.80
2018-03-24T07:18:10.514Z,99.80
2018-03-24T07:20:38.065Z,99.80
2018-03-24T07:23:05.641Z,99.80
2018-03-24T07:25:33.280Z,99.80
2018-03-24T07:28:00.794Z,99.80
2018-03-24T07:30:29.272Z,99.80
2018-03-24T07:32:57.301Z,99.80
2018-03-24T07:35:24.874Z,99.80
2018-03-24T07:37:52.440Z,99.20
2018-03-24T07:40:19.975Z,98.60
2018-03-24T07:42:47.553Z,97.80
2018-03-24T07:45:15.106Z,96.70
2018-03-24T07:47:42.659Z,96.30
2018-03-24T07:50:10.208Z,96.70
2018-03-24T07:52:38.799Z,97.70
2018-03-24T07:55:06.343Z,97.70
2018-03-24T07:57:33.909Z,97.40
2018-03-24T08:00:01.428Z,97.30
2018-03-24T08:02:28.977Z,95.70
2018-03-24T08:04:56.914Z,93.80
2018-03-24T08:07:24.504Z,93.80
2018-03-24T08:09:52.047Z,93.80
2018-03-24T08:12:19.591Z,93.40
2018-03-24T08:14:47.188Z,94.20
2018-03-24T08:17:15.154Z,93.00
2018-03-24T08:19:43.198Z,93.80
2018-03-24T08:22:10.820Z,93.80
2018-03-24T08:24:38.452Z,91.90
2018-03-24T08:27:06.773Z,89.90
2018-03-24T08:29:34.358Z,90.70
2018-03-24T08:32:01.948Z,89.80
2018-03-24T08:34:29.472Z,89.90
2018-03-24T08:36:57.042Z,89.50
2018-03-24T08:39:24.625Z,89.10
2018-03-24T08:41:52.233Z,88.50
2018-03-24T08:44:19.835Z,88.90
2018-03-24T08:46:47.369Z,87.70
2018-03-24T08:49:14.943Z,87.60
2018-03-24T08:51:42.495Z,87.70
2018-03-24T08:54:10.031Z,86.20
2018-03-24T08:56:37.630Z,86.40
2018-03-24T08:59:05.195Z,85.60
2018-03-24T09:01:33.147Z,84.90
2018-03-24T09:04:01.234Z,84.90
2018-03-24T09:06:29.628Z,83.00
2018-03-24T09:08:57.550Z,81.00
2018-03-24T09:11:25.201Z,81.00
2018-03-24T09:13:52.798Z,81.00
2018-03-24T09:16:20.411Z,82.40
2018-03-24T09:18:50.478Z,78.30
2018-03-24T09:21:20.511Z,79.00
2018-03-24T09:23:53.674Z,76.40
2018-03-24T09:26:22.413Z,74.10
2018-03-24T09:28:52.284Z,74.10
2018-03-24T09:31:20.620Z,72.70
2018-03-24T09:33:48.221Z,72.70
2018-03-24T09:36:15.807Z,73.30
2018-03-24T09:38:43.758Z,72.10
2018-03-24T09:41:11.377Z,72.10
2018-03-24T09:43:38.938Z,69.50
2018-03-24T09:46:06.527Z,71.20
2018-03-24T09:48:34.048Z,66.40
2018-03-24T09:51:01.670Z,64.10
2018-03-24T09:53:29.250Z,61.20
2018-03-24T09:55:57.735Z,60.10
2018-03-24T09:58:25.803Z,60.10
2018-03-24T10:00:53.388Z,59.90
2018-03-24T10:03:20.958Z,59.20
2018-03-24T10:05:48.830Z,57.40
2018-03-24T10:08:16.377Z,57.70
2018-03-24T10:10:44.034Z,58.50
2018-03-24T10:13:11.823Z,54.80
2018-03-24T10:15:39.997Z,53.40
2018-03-24T10:18:07.542Z,55.40
2018-03-24T10:23:44.520Z,55.00
2018-03-24T10:26:12.124Z,54.20
2018-03-24T10:28:39.691Z,54.70
2018-03-24T10:31:07.253Z,55.00
2018-03-24T10:36:35.481Z,54.40
2018-03-24T10:39:03.964Z,55.30
2018-03-24T10:41:31.533Z,55.40
2018-03-24T10:43:59.138Z,57.60
2018-03-24T10:46:26.807Z,60.70
2018-03-24T10:48:54.377Z,59.40
2018-03-24T10:51:22.009Z,56.90
2018-03-24T10:53:49.581Z,58.40
2018-03-24T10:56:17.248Z,56.00
2018-03-24T10:58:44.836Z,54.50
2018-03-24T11:01:13.682Z,57.30
2018-03-24T11:03:41.292Z,57.20
2018-03-24T11:06:09.650Z,57.50
2018-03-24T11:08:37.210Z,57.80
2018-03-24T11:11:04.748Z,58.60
2018-03-24T11:13:32.293Z,58.80
2018-03-24T11:15:59.917Z,56.60
2018-03-24T11:18:28.785Z,56.80
2018-03-24T11:20:56.740Z,55.80
2018-03-24T11:23:24.906Z,56.70
2018-03-24T11:25:52.431Z,56.70
2018-03-24T11:28:20.006Z,54.50
2018-03-24T11:30:47.589Z,56.00
2018-03-24T11:33:15.177Z,52.40
2018-03-24T11:35:43.108Z,51.10
2018-03-24T11:38:10.691Z,51.10
2018-03-24T11:40:38.630Z,47.60
2018-03-24T11:43:06.272Z,47.60
2018-03-24T11:45:33.853Z,46.80
2018-03-24T11:48:02.967Z,45.80
2018-03-24T11:50:30.559Z,45.10
2018-03-24T11:52:58.525Z,44.80
2018-03-24T11:55:26.569Z,46.10
2018-03-24T11:57:54.209Z,46.10
2018-03-24T12:00:21.805Z,46.10
2018-03-24T12:02:49.630Z,48.90
2018-03-24T12:05:17.207Z,50.10
2018-03-24T12:07:45.317Z,50.90
2018-03-24T12:10:12.909Z,51.50
2018-03-24T12:12:40.637Z,51.10
2018-03-24T12:15:08.244Z,51.60
2018-03-24T12:17:35.904Z,51.60
2018-03-24T12:20:03.513Z,51.50
2018-03-24T12:22:31.159Z,52.70
2018-03-24T12:24:58.773Z,51.80
2018-03-24T12:27:26.360Z,51.40
2018-03-24T12:29:53.967Z,47.30
2018-03-24T12:32:21.896Z,35.50
2018-03-24T12:34:49.511Z,35.50
2018-03-24T12:37:17.495Z,35.20
2018-03-24T12:39:45.137Z,35.20
2018-03-24T12:42:12.730Z,39.90
2018-03-24T12:44:40.278Z,41.50
2018-03-24T12:47:07.869Z,43.90
2018-03-24T12:49:35.437Z,44.10
2018-03-24T12:52:03.070Z,43.90
2018-03-24T12:54:30.656Z,42.00
2018-03-24T12:56:58.240Z,41.80
2018-03-24T12:59:26.200Z,31.20
2018-03-24T13:01:53.770Z,31.20
2018-03-24T13:04:21.717Z,24.30
2018-03-24T13:06:49.345Z,24.30
2018-03-24T13:09:16.936Z,22.70
2018-03-24T13:11:44.518Z,22.00
2018-03-24T13:14:12.486Z,20.60
2018-03-24T13:16:40.481Z,21.60
2018-03-24T13:19:08.038Z,21.60
2018-03-24T13:21:36.533Z,20.70
2018-03-24T13:24:04.212Z,21.00
2018-03-24T13:26:31.813Z,20.90
2018-03-24T13:28:59.366Z,21.50
2018-03-24T13:31:26.977Z,22.10
2018-03-24T13:33:54.619Z,22.10
2018-03-24T13:36:22.218Z,23.20
2018-03-24T13:38:49.779Z,25.20
2018-03-24T13:41:17.380Z,26.20
2018-03-24T13:43:45.350Z,25.20
2018-03-24T13:46:13.351Z,24.70
2018-03-24T13:48:41.860Z,24.70
2018-03-24T13:51:09.447Z,26.50
2018-03-24T13:53:37.000Z,25.90
2018-03-24T13:56:04.632Z,25.40
2018-03-24T13:58:32.225Z,25.40
2018-03-24T14:01:00.750Z,25.30
2018-03-24T14:03:28.628Z,24.90
2018-03-24T14:05:56.214Z,25.30
2018-03-24T14:08:30.949Z,25.30
2018-03-24T14:11:00.056Z,24.40
2018-03-24T14:13:30.338Z,25.10
2018-03-24T14:16:01.460Z,26.20
2018-03-24T14:18:30.330Z,26.20
2018-03-24T14:20:58.319Z,24.10
2018-03-24T14:23:25.850Z,24.10
2018-03-24T14:25:53.890Z,26.20
2018-03-24T14:28:21.756Z,26.20
2018-03-24T14:30:49.442Z,26.70
2018-03-24T14:33:17.003Z,26.90
2018-03-24T14:35:45.188Z,26.00
2018-03-24T14:38:13.098Z,25.90
2018-03-24T14:40:41.090Z,24.20
2018-03-24T14:43:08.665Z,23.20
2018-03-24T14:45:36.736Z,22.50
2018-03-24T14:48:06.904Z,21.80
2018-03-24T14:50:35.387Z,20.70
2018-03-24T14:53:04.169Z,23.60
2018-03-24T14:55:31.750Z,23.60
2018-03-24T14:58:01.471Z,22.10
2018-03-24T15:00:29.308Z,23.70
2018-03-24T15:02:58.079Z,26.80
2018-03-24T15:05:26.046Z,29.10
2018-03-24T15:07:54.257Z,29.90
2018-03-24T15:10:23.185Z,29.90
2018-03-24T15:12:50.949Z,31.00
2018-03-24T15:15:18.586Z,32.20
2018-03-24T15:17:46.149Z,33.90
2018-03-24T15:20:13.828Z,37.10
2018-03-24T15:22:41.410Z,37.60
2018-03-24T15:25:08.997Z,35.70
2018-03-24T15:27:36.662Z,32.70
2018-03-24T15:30:16.167Z,31.70
2018-03-24T15:33:04.350Z,31.10
2018-03-24T15:35:34.663Z,30.00
2018-03-24T15:38:05.029Z,29.30
2018-03-24T15:40:32.598Z,29.10
2018-03-24T15:43:00.253Z,29.20
2018-03-24T15:45:28.772Z,30.50
2018-03-24T15:47:59.166Z,32.00
2018-03-24T15:50:28.623Z,32.20
2018-03-24T15:52:57.545Z,37.60
2018-03-24T15:55:25.578Z,37.60
2018-03-24T15:57:54.106Z,36.30
2018-03-24T16:00:23.021Z,36.30
2018-03-24T16:02:51.954Z,35.60
2018-03-24T16:05:19.596Z,36.30
2018-03-24T16:07:47.879Z,35.30
2018-03-24T16:10:15.922Z,33.20
2018-03-24T16:12:45.807Z,28.80
2018-03-24T16:15:13.496Z,27.40
2018-03-24T16:17:41.181Z,26.90
2018-03-24T16:20:08.759Z,25.40
2018-03-24T16:22:36.328Z,26.10
2018-03-24T16:25:03.930Z,25.50
2018-03-24T16:27:31.596Z,25.80
2018-03-24T16:29:59.537Z,26.00
2018-03-24T16:32:27.459Z,28.30
2018-03-24T16:34:57.264Z,29.80
2018-03-24T16:37:24.828Z,31.20
2018-03-24T16:39:53.305Z,32.00
2018-03-24T16:42:21.786Z,31.50
2018-03-24T16:44:50.460Z,30.00
2018-03-24T16:47:18.062Z,30.00
2018-03-24T16:49:45.742Z,29.20
2018-03-24T16:52:13.315Z,29.10
2018-03-24T16:54:40.913Z,29.10
2018-03-24T16:57:08.445Z,31.90
2018-03-24T16:59:36.027Z,33.40
2018-03-24T17:02:04.294Z,35.00
2018-03-24T17:04:31.912Z,35.00
2018-03-24T17:06:59.476Z,36.30
2018-03-24T17:09:27.742Z,35.10
2018-03-24T17:11:55.340Z,35.20
2018-03-24T17:14:23.871Z,34.90
2018-03-24T17:16:52.096Z,37.90
2018-03-24T17:19:19.663Z,37.90
2018-03-24T17:21:47.218Z,38.90
2018-03-24T17:24:14.821Z,40.50
2018-03-24T17:26:42.786Z,43.40
2018-03-24T17:29:10.742Z,45.10
2018-03-24T17:31:38.278Z,45.10
2018-03-24T17:34:06.683Z,48.40
2018-03-24T17:36:36.427Z,52.80
2018-03-24T17:39:03.980Z,52.80
2018-03-24T17:41:31.578Z,54.40
2018-03-24T17:43:59.531Z,55.70
2018-03-24T17:46:27.216Z,56.60
2018-03-24T17:48:54.808Z,57.90
2018-03-24T17:51:22.410Z,59.10
2018-03-24T17:53:49.974Z,58.70
2018-03-24T17:56:17.631Z,59.00
2018-03-24T17:58:45.240Z,59.90
2018-03-24T18:01:12.794Z,60.20
2018-03-24T18:03:41.565Z,60.30
2018-03-24T18:06:10.086Z,61.60
2018-03-24T18:08:38.063Z,61.20
2018-03-24T18:11:06.144Z,61.00
2018-03-24T19:26:39.546Z,71.20
